sensor_id;sensor_type;location;lat;lon;timestamp;pressure;altitude;pressure_sealevel;temperature;humidity
25947;BME280;13745;51.470;9.894;2023-07-22T00:00:34;99131.63;;;14.54;91.88
25947;BME280;13745;51.470;9.894;2023-07-22T00:03:19;99132.53;;;14.53;92.02
25947;BME280;13745;51.470;9.894;2023-07-22T00:06:07;99123.97;;;14.49;91.82
25947;BME280;13745;51.470;9.894;2023-07-22T00:08:53;99128.34;;;14.47;91.88
25947;BME280;13745;51.470;9.894;2023-07-22T00:11:40;99123.22;;;14.44;91.74
25947;BME280;13745;51.470;9.894;2023-07-22T00:14:25;99126.03;;;14.38;91.59
25947;BME280;13745;51.470;9.894;2023-07-22T00:17:10;99128.00;;;14.31;91.58
25947;BME280;13745;51.470;9.894;2023-07-22T00:19:55;99135.09;;;14.26;91.64
25947;BME280;13745;51.470;9.894;2023-07-22T00:22:40;99135.34;;;14.19;91.69
25947;BME280;13745;51.470;9.894;2023-07-22T00:25:26;99131.22;;;14.12;91.65
25947;BME280;13745;51.470;9.894;2023-07-22T00:28:13;99131.41;;;14.07;91.67
25947;BME280;13745;51.470;9.894;2023-07-22T00:30:58;99125.34;;;14.05;91.59
25947;BME280;13745;51.470;9.894;2023-07-22T00:33:45;99123.75;;;14.01;91.74
25947;BME280;13745;51.470;9.894;2023-07-22T00:36:30;99118.59;;;13.99;91.53
25947;BME280;13745;51.470;9.894;2023-07-22T00:39:15;99126.44;;;13.98;91.80
25947;BME280;13745;51.470;9.894;2023-07-22T00:42:00;99123.16;;;13.93;91.54
25947;BME280;13745;51.470;9.894;2023-07-22T00:44:47;99122.34;;;13.91;92.08
25947;BME280;13745;51.470;9.894;2023-07-22T00:47:32;99130.19;;;13.89;91.69
25947;BME280;13745;51.470;9.894;2023-07-22T00:50:18;99127.69;;;13.86;91.77
25947;BME280;13745;51.470;9.894;2023-07-22T00:53:03;99131.25;;;13.84;91.85
25947;BME280;13745;51.470;9.894;2023-07-22T00:55:49;99127.81;;;13.82;91.57
25947;BME280;13745;51.470;9.894;2023-07-22T00:58:34;99132.28;;;13.78;91.72
25947;BME280;13745;51.470;9.894;2023-07-22T01:01:21;99127.91;;;13.78;91.69
25947;BME280;13745;51.470;9.894;2023-07-22T01:04:06;99115.91;;;13.74;91.79
25947;BME280;13745;51.470;9.894;2023-07-22T01:06:52;99118.53;;;13.73;91.50
25947;BME280;13745;51.470;9.894;2023-07-22T01:09:38;99111.63;;;13.72;91.61
25947;BME280;13745;51.470;9.894;2023-07-22T01:12:24;99116.03;;;13.70;91.66
25947;BME280;13745;51.470;9.894;2023-07-22T01:15:09;99110.88;;;13.68;91.62
25947;BME280;13745;51.470;9.894;2023-07-22T01:17:56;99112.69;;;13.65;91.77
25947;BME280;13745;51.470;9.894;2023-07-22T01:20:45;99121.41;;;13.64;91.55
25947;BME280;13745;51.470;9.894;2023-07-22T01:23:33;99119.72;;;13.63;91.46
25947;BME280;13745;51.470;9.894;2023-07-22T01:26:19;99125.94;;;13.59;91.74
25947;BME280;13745;51.470;9.894;2023-07-22T01:29:04;99129.44;;;13.58;91.77
25947;BME280;13745;51.470;9.894;2023-07-22T01:31:53;99126.84;;;13.56;91.71
25947;BME280;13745;51.470;9.894;2023-07-22T01:34:38;99133.00;;;13.54;91.65
25947;BME280;13745;51.470;9.894;2023-07-22T01:37:24;99132.16;;;13.53;91.69
25947;BME280;13745;51.470;9.894;2023-07-22T01:40:11;99128.69;;;13.53;91.57
25947;BME280;13745;51.470;9.894;2023-07-22T01:42:57;99127.06;;;13.50;91.52
25947;BME280;13745;51.470;9.894;2023-07-22T01:45:42;99129.66;;;13.48;91.24
25947;BME280;13745;51.470;9.894;2023-07-22T01:48:27;99131.41;;;13.49;91.64
25947;BME280;13745;51.470;9.894;2023-07-22T01:51:12;99136.63;;;13.49;91.40
25947;BME280;13745;51.470;9.894;2023-07-22T01:53:57;99137.47;;;13.48;91.21
25947;BME280;13745;51.470;9.894;2023-07-22T01:56:43;99129.72;;;13.47;91.44
25947;BME280;13745;51.470;9.894;2023-07-22T01:59:29;99127.13;;;13.47;91.34
25947;BME280;13745;51.470;9.894;2023-07-22T02:02:14;99128.94;;;13.45;91.25
25947;BME280;13745;51.470;9.894;2023-07-22T02:04:59;99127.31;;;13.41;91.49
25947;BME280;13745;51.470;9.894;2023-07-22T02:07:44;99133.44;;;13.38;91.40
25947;BME280;13745;51.470;9.894;2023-07-22T02:10:29;99136.19;;;13.34;91.48
25947;BME280;13745;51.470;9.894;2023-07-22T02:13:16;99131.91;;;13.33;91.44
25947;BME280;13745;51.470;9.894;2023-07-22T02:16:01;99137.13;;;13.31;91.58
25947;BME280;13745;51.470;9.894;2023-07-22T02:18:47;99132.88;;;13.29;91.26
25947;BME280;13745;51.470;9.894;2023-07-22T02:21:32;99144.22;;;13.26;91.22
25947;BME280;13745;51.470;9.894;2023-07-22T02:24:17;99142.53;;;13.24;91.53
25947;BME280;13745;51.470;9.894;2023-07-22T02:27:02;99140.81;;;13.24;91.46
25947;BME280;13745;51.470;9.894;2023-07-22T02:29:49;99136.47;;;13.23;91.55
25947;BME280;13745;51.470;9.894;2023-07-22T02:32:36;99139.09;;;13.23;91.04
25947;BME280;13745;51.470;9.894;2023-07-22T02:35:21;99139.09;;;13.23;91.34
25947;BME280;13745;51.470;9.894;2023-07-22T02:38:07;99142.59;;;13.22;91.31
25947;BME280;13745;51.470;9.894;2023-07-22T02:40:52;99136.47;;;13.23;91.25
25947;BME280;13745;51.470;9.894;2023-07-22T02:43:37;99135.63;;;13.24;91.22
25947;BME280;13745;51.470;9.894;2023-07-22T02:46:25;99128.66;;;13.23;90.96
25947;BME280;13745;51.470;9.894;2023-07-22T02:49:11;99137.34;;;13.24;91.50
25947;BME280;13745;51.470;9.894;2023-07-22T02:51:56;99144.34;;;13.21;91.41
25947;BME280;13745;51.470;9.894;2023-07-22T02:54:41;99147.00;;;13.18;91.48
25947;BME280;13745;51.470;9.894;2023-07-22T02:57:26;99154.88;;;13.15;91.74
25947;BME280;13745;51.470;9.894;2023-07-22T03:00:13;99143.72;;;13.12;91.32
25947;BME280;13745;51.470;9.894;2023-07-22T03:03:03;99149.94;;;13.06;91.61
25947;BME280;13745;51.470;9.894;2023-07-22T03:05:49;99152.66;;;13.02;91.68
25947;BME280;13745;51.470;9.894;2023-07-22T03:08:34;99164.84;;;13.01;91.46
25947;BME280;13745;51.470;9.894;2023-07-22T03:11:19;99157.94;;;12.99;91.61
25947;BME280;13745;51.470;9.894;2023-07-22T03:14:06;99154.56;;;12.95;91.40
25947;BME280;13745;51.470;9.894;2023-07-22T03:16:51;99162.44;;;12.93;91.53
25947;BME280;13745;51.470;9.894;2023-07-22T03:19:38;99162.50;;;12.90;91.53
25947;BME280;13745;51.470;9.894;2023-07-22T03:22:24;99164.28;;;12.88;91.78
25947;BME280;13745;51.470;9.894;2023-07-22T03:25:09;99156.53;;;12.87;91.54
25947;BME280;13745;51.470;9.894;2023-07-22T03:27:55;99158.22;;;12.88;91.79
25947;BME280;13745;51.470;9.894;2023-07-22T03:30:40;99163.53;;;12.85;91.33
25947;BME280;13745;51.470;9.894;2023-07-22T03:33:26;99167.88;;;12.84;91.50
25947;BME280;13745;51.470;9.894;2023-07-22T03:36:12;99165.28;;;12.84;91.28
25947;BME280;13745;51.470;9.894;2023-07-22T03:38:58;99172.22;;;12.84;91.43
25947;BME280;13745;51.470;9.894;2023-07-22T03:41:43;99172.22;;;12.84;91.42
25947;BME280;13745;51.470;9.894;2023-07-22T03:44:29;99177.44;;;12.84;91.75
25947;BME280;13745;51.470;9.894;2023-07-22T03:47:14;99173.13;;;12.83;91.60
25947;BME280;13745;51.470;9.894;2023-07-22T03:50:00;99176.59;;;12.83;91.38
25947;BME280;13745;51.470;9.894;2023-07-22T03:52:46;99172.25;;;12.82;91.79
25947;BME280;13745;51.470;9.894;2023-07-22T03:55:31;99173.97;;;12.83;91.42
25947;BME280;13745;51.470;9.894;2023-07-22T03:58:17;99177.44;;;12.82;91.66
25947;BME280;13745;51.470;9.894;2023-07-22T04:01:02;99177.50;;;12.81;91.28
25947;BME280;13745;51.470;9.894;2023-07-22T04:03:47;99172.38;;;12.78;91.67
25947;BME280;13745;51.470;9.894;2023-07-22T04:06:32;99171.53;;;12.77;91.75
25947;BME280;13745;51.470;9.894;2023-07-22T04:09:18;99174.97;;;12.78;91.98
25947;BME280;13745;51.470;9.894;2023-07-22T04:12:04;99169.78;;;12.78;91.79
25947;BME280;13745;51.470;9.894;2023-07-22T04:14:49;99174.09;;;12.79;91.92
25947;BME280;13745;51.470;9.894;2023-07-22T04:17:35;99175.75;;;12.81;91.73
25947;BME280;13745;51.470;9.894;2023-07-22T04:20:20;99176.59;;;12.82;91.97
25947;BME280;13745;51.470;9.894;2023-07-22T04:23:07;99173.09;;;12.84;91.61
25947;BME280;13745;51.470;9.894;2023-07-22T04:25:55;99173.88;;;12.86;91.68
25947;BME280;13745;51.470;9.894;2023-07-22T04:28:43;99169.50;;;12.88;91.74
25947;BME280;13745;51.470;9.894;2023-07-22T04:31:27;99171.13;;;12.92;91.88
25947;BME280;13745;51.470;9.894;2023-07-22T04:34:12;99172.75;;;12.97;91.77
25947;BME280;13745;51.470;9.894;2023-07-22T04:36:57;99167.47;;;13.00;91.63
25947;BME280;13745;51.470;9.894;2023-07-22T04:39:47;99169.94;;;13.04;91.71
25947;BME280;13745;51.470;9.894;2023-07-22T04:42:34;99170.63;;;13.11;91.54
25947;BME280;13745;51.470;9.894;2023-07-22T04:45:19;99172.22;;;13.16;91.58
25947;BME280;13745;51.470;9.894;2023-07-22T04:48:05;99178.97;;;13.24;91.32
25947;BME280;13745;51.470;9.894;2023-07-22T04:50:50;99176.25;;;13.28;91.56
25947;BME280;13745;51.470;9.894;2023-07-22T04:53:35;99177.84;;;13.34;91.60
25947;BME280;13745;51.470;9.894;2023-07-22T04:56:20;99175.16;;;13.37;91.50
25947;BME280;13745;51.470;9.894;2023-07-22T04:59:07;99175.84;;;13.43;91.38
25947;BME280;13745;51.470;9.894;2023-07-22T05:01:52;99180.06;;;13.47;91.41
25947;BME280;13745;51.470;9.894;2023-07-22T05:04:38;99179.09;;;13.52;91.32
25947;BME280;13745;51.470;9.894;2023-07-22T05:07:23;99183.28;;;13.57;91.42
25947;BME280;13745;51.470;9.894;2023-07-22T05:10:09;99185.69;;;13.63;91.27
25947;BME280;13745;51.470;9.894;2023-07-22T05:12:55;99183.00;;;13.66;91.29
25947;BME280;13745;51.470;9.894;2023-07-22T05:15:43;99184.72;;;13.67;91.12
25947;BME280;13745;51.470;9.894;2023-07-22T05:18:28;99179.41;;;13.70;91.12
25947;BME280;13745;51.470;9.894;2023-07-22T05:21:13;99178.50;;;13.71;91.31
25947;BME280;13745;51.470;9.894;2023-07-22T05:23:59;99174.91;;;13.75;91.19
25947;BME280;13745;51.470;9.894;2023-07-22T05:26:44;99179.06;;;13.81;91.29
25947;BME280;13745;51.470;9.894;2023-07-22T05:29:29;99188.41;;;13.88;90.99
25947;BME280;13745;51.470;9.894;2023-07-22T05:32:15;99181.16;;;13.99;90.82
25947;BME280;13745;51.470;9.894;2023-07-22T05:35:01;99190.34;;;14.11;90.59
25947;BME280;13745;51.470;9.894;2023-07-22T05:37:48;99189.19;;;14.20;90.51
25947;BME280;13745;51.470;9.894;2023-07-22T05:40:32;99184.53;;;14.29;90.53
25947;BME280;13745;51.470;9.894;2023-07-22T05:43:18;99176.47;;;14.37;90.46
25947;BME280;13745;51.470;9.894;2023-07-22T05:46:03;99185.72;;;14.47;90.41
25947;BME280;13745;51.470;9.894;2023-07-22T05:48:50;99182.78;;;14.58;90.04
25947;BME280;13745;51.470;9.894;2023-07-22T05:51:35;99179.81;;;14.69;89.89
25947;BME280;13745;51.470;9.894;2023-07-22T05:54:20;99177.81;;;14.77;90.10
25947;BME280;13745;51.470;9.894;2023-07-22T05:57:06;99178.47;;;14.83;89.96
25947;BME280;13745;51.470;9.894;2023-07-22T05:59:52;99173.91;;;14.90;89.74
25947;BME280;13745;51.470;9.894;2023-07-22T06:02:37;99180.56;;;14.99;89.52
25947;BME280;13745;51.470;9.894;2023-07-22T06:05:23;99180.22;;;15.08;89.71
25947;BME280;13745;51.470;9.894;2023-07-22T06:08:09;99183.31;;;15.19;89.55
25947;BME280;13745;51.470;9.894;2023-07-22T06:10:54;99182.03;;;15.31;89.26
25947;BME280;13745;51.470;9.894;2023-07-22T06:13:39;99188.63;;;15.41;89.28
25947;BME280;13745;51.470;9.894;2023-07-22T06:16:24;99182.94;;;15.53;89.08
25947;BME280;13745;51.470;9.894;2023-07-22T06:19:09;99189.34;;;15.69;88.86
25947;BME280;13745;51.470;9.894;2023-07-22T06:21:55;99192.22;;;15.85;88.32
25947;BME280;13745;51.470;9.894;2023-07-22T06:24:41;99192.63;;;15.98;88.16
25947;BME280;13745;51.470;9.894;2023-07-22T06:27:26;99192.44;;;16.02;88.29
25947;BME280;13745;51.470;9.894;2023-07-22T06:30:12;99194.41;;;15.97;87.99
25947;BME280;13745;51.470;9.894;2023-07-22T06:32:57;99201.72;;;15.88;87.88
25947;BME280;13745;51.470;9.894;2023-07-22T06:35:42;99201.91;;;15.83;87.56
25947;BME280;13745;51.470;9.894;2023-07-22T06:38:29;99193.28;;;15.81;87.57
25947;BME280;13745;51.470;9.894;2023-07-22T06:41:14;99203.47;;;15.87;86.83
25947;BME280;13745;51.470;9.894;2023-07-22T06:43:59;99198.09;;;15.92;86.40
25947;BME280;13745;51.470;9.894;2023-07-22T06:46:45;99201.34;;;15.97;85.91
25947;BME280;13745;51.470;9.894;2023-07-22T06:49:30;99203.94;;;15.98;85.61
25947;BME280;13745;51.470;9.894;2023-07-22T06:52:15;99205.69;;;15.98;85.26
25947;BME280;13745;51.470;9.894;2023-07-22T06:55:02;99215.06;;;16.04;85.11
25947;BME280;13745;51.470;9.894;2023-07-22T06:57:48;99206.00;;;16.12;84.99
25947;BME280;13745;51.470;9.894;2023-07-22T07:00:33;99199.81;;;16.15;84.62
25947;BME280;13745;51.470;9.894;2023-07-22T07:03:18;99201.31;;;16.20;84.21
25947;BME280;13745;51.470;9.894;2023-07-22T07:06:05;99213.19;;;16.29;84.01
25947;BME280;13745;51.470;9.894;2023-07-22T07:08:50;99212.78;;;16.40;83.75
25947;BME280;13745;51.470;9.894;2023-07-22T07:11:37;99208.75;;;16.53;83.32
25947;BME280;13745;51.470;9.894;2023-07-22T07:14:22;99205.72;;;16.64;82.97
25947;BME280;13745;51.470;9.894;2023-07-22T07:17:08;99214.94;;;16.74;82.92
25947;BME280;13745;51.470;9.894;2023-07-22T07:19:53;99213.69;;;16.82;82.64
25947;BME280;13745;51.470;9.894;2023-07-22T07:22:38;99221.28;;;16.89;82.31
25947;BME280;13745;51.470;9.894;2023-07-22T07:25:23;99222.78;;;16.94;82.07
25947;BME280;13745;51.470;9.894;2023-07-22T07:28:10;99225.34;;;16.96;81.75
25947;BME280;13745;51.470;9.894;2023-07-22T07:30:56;99228.09;;;16.93;81.51
25947;BME280;13745;51.470;9.894;2023-07-22T07:33:41;99227.25;;;16.92;81.75
25947;BME280;13745;51.470;9.894;2023-07-22T07:36:26;99227.91;;;16.97;81.16
25947;BME280;13745;51.470;9.894;2023-07-22T07:39:11;99236.84;;;17.13;80.58
25947;BME280;13745;51.470;9.894;2023-07-22T07:41:57;99233.22;;;17.16;80.30
25947;BME280;13745;51.470;9.894;2023-07-22T07:44:43;99239.16;;;17.20;79.88
25947;BME280;13745;51.470;9.894;2023-07-22T07:47:28;99249.44;;;17.45;79.54
25947;BME280;13745;51.470;9.894;2023-07-22T07:50:13;99245.03;;;17.65;79.14
25947;BME280;13745;51.470;9.894;2023-07-22T07:52:58;99238.81;;;17.88;78.82
25947;BME280;13745;51.470;9.894;2023-07-22T07:55:44;99247.31;;;18.12;78.55
25947;BME280;13745;51.470;9.894;2023-07-22T07:58:29;99250.13;;;18.27;77.70
25947;BME280;13745;51.470;9.894;2023-07-22T08:01:16;99242.75;;;18.35;77.42
25947;BME280;13745;51.470;9.894;2023-07-22T08:04:02;99245.97;;;18.59;76.62
25947;BME280;13745;51.470;9.894;2023-07-22T08:06:47;99243.19;;;18.62;76.38
25947;BME280;13745;51.470;9.894;2023-07-22T08:09:32;99246.69;;;18.81;75.78
25947;BME280;13745;51.470;9.894;2023-07-22T08:12:18;99238.97;;;18.95;75.19
25947;BME280;13745;51.470;9.894;2023-07-22T08:15:04;99239.03;;;19.11;74.09
25947;BME280;13745;51.470;9.894;2023-07-22T08:17:51;99239.91;;;19.12;74.06
25947;BME280;13745;51.470;9.894;2023-07-22T08:20:37;99242.59;;;19.10;74.18
25947;BME280;13745;51.470;9.894;2023-07-22T08:23:22;99240.97;;;19.25;74.11
25947;BME280;13745;51.470;9.894;2023-07-22T08:26:08;99242.59;;;19.45;73.23
25947;BME280;13745;51.470;9.894;2023-07-22T08:28:53;99246.84;;;19.47;72.57
25947;BME280;13745;51.470;9.894;2023-07-22T08:31:38;99232.66;;;19.50;72.66
25947;BME280;13745;51.470;9.894;2023-07-22T08:34:25;99238.75;;;19.68;71.78
25947;BME280;13745;51.470;9.894;2023-07-22T08:37:10;99239.66;;;19.84;71.55
25947;BME280;13745;51.470;9.894;2023-07-22T08:39:56;99231.69;;;20.01;70.69
25947;BME280;13745;51.470;9.894;2023-07-22T08:42:43;99246.66;;;20.16;70.62
25947;BME280;13745;51.470;9.894;2023-07-22T08:45:32;99239.88;;;20.28;69.94
25947;BME280;13745;51.470;9.894;2023-07-22T08:48:19;99237.16;;;20.30;69.29
25947;BME280;13745;51.470;9.894;2023-07-22T08:51:10;99230.78;;;20.34;68.78
25947;BME280;13745;51.470;9.894;2023-07-22T08:53:57;99232.03;;;20.42;68.99
25947;BME280;13745;51.470;9.894;2023-07-22T08:56:44;99242.00;;;20.37;68.55
25947;BME280;13745;51.470;9.894;2023-07-22T08:59:29;99234.97;;;20.54;68.37
25947;BME280;13745;51.470;9.894;2023-07-22T09:02:15;99231.53;;;20.67;68.03
25947;BME280;13745;51.470;9.894;2023-07-22T09:05:02;99233.72;;;20.75;67.28
25947;BME280;13745;51.470;9.894;2023-07-22T09:07:50;99234.25;;;20.82;67.16
25947;BME280;13745;51.470;9.894;2023-07-22T09:10:36;99230.50;;;20.86;67.08
25947;BME280;13745;51.470;9.894;2023-07-22T09:13:23;99224.31;;;21.01;66.31
25947;BME280;13745;51.470;9.894;2023-07-22T09:16:10;99228.78;;;21.15;66.54
25947;BME280;13745;51.470;9.894;2023-07-22T09:18:57;99220.31;;;21.24;65.41
25947;BME280;13745;51.470;9.894;2023-07-22T09:21:42;99220.19;;;21.27;65.96
25947;BME280;13745;51.470;9.894;2023-07-22T09:24:28;99222.53;;;21.31;65.37
25947;BME280;13745;51.470;9.894;2023-07-22T09:27:14;99230.22;;;21.20;64.62
25947;BME280;13745;51.470;9.894;2023-07-22T09:29:59;99229.22;;;21.07;65.19
25947;BME280;13745;51.470;9.894;2023-07-22T09:32:44;99229.53;;;21.17;65.28
25947;BME280;13745;51.470;9.894;2023-07-22T09:35:31;99230.97;;;21.22;64.88
25947;BME280;13745;51.470;9.894;2023-07-22T09:38:26;99225.06;;;21.33;64.30
25947;BME280;13745;51.470;9.894;2023-07-22T09:41:18;99212.38;;;21.40;63.52
25947;BME280;13745;51.470;9.894;2023-07-22T09:44:03;99219.44;;;21.39;64.22
25947;BME280;13745;51.470;9.894;2023-07-22T09:46:49;99214.53;;;21.33;63.87
25947;BME280;13745;51.470;9.894;2023-07-22T09:49:40;99207.25;;;21.22;63.99
25947;BME280;13745;51.470;9.894;2023-07-22T09:52:26;99213.78;;;21.31;64.28
25947;BME280;13745;51.470;9.894;2023-07-22T09:55:11;99221.81;;;21.44;63.79
25947;BME280;13745;51.470;9.894;2023-07-22T09:58:00;99198.91;;;21.58;62.75
25947;BME280;13745;51.470;9.894;2023-07-22T10:00:48;99208.91;;;21.82;63.02
25947;BME280;13745;51.470;9.894;2023-07-22T10:03:36;99204.09;;;21.88;62.52
25947;BME280;13745;51.470;9.894;2023-07-22T10:06:24;99207.56;;;21.75;62.03
25947;BME280;13745;51.470;9.894;2023-07-22T10:09:12;99200.69;;;21.58;62.49
25947;BME280;13745;51.470;9.894;2023-07-22T10:11:59;99206.84;;;21.44;63.08
25947;BME280;13745;51.470;9.894;2023-07-22T10:14:45;99197.84;;;21.33;63.13
25947;BME280;13745;51.470;9.894;2023-07-22T10:17:31;99204.59;;;21.22;62.77
25947;BME280;13745;51.470;9.894;2023-07-22T10:20:16;99200.91;;;21.11;63.26
25947;BME280;13745;51.470;9.894;2023-07-22T10:23:04;99210.97;;;21.04;63.17
25947;BME280;13745;51.470;9.894;2023-07-22T10:25:50;99204.25;;;20.98;63.34
25947;BME280;13745;51.470;9.894;2023-07-22T10:28:37;99208.03;;;20.94;62.98
25947;BME280;13745;51.470;9.894;2023-07-22T10:31:30;99196.66;;;20.94;62.75
25947;BME280;13745;51.470;9.894;2023-07-22T10:34:15;99196.34;;;20.98;62.91
25947;BME280;13745;51.470;9.894;2023-07-22T10:37:00;99196.66;;;21.08;62.42
25947;BME280;13745;51.470;9.894;2023-07-22T10:39:48;99194.16;;;21.21;62.32
25947;BME280;13745;51.470;9.894;2023-07-22T10:42:33;99194.81;;;21.24;61.79
25947;BME280;13745;51.470;9.894;2023-07-22T10:45:29;99195.00;;;21.21;61.36
25947;BME280;13745;51.470;9.894;2023-07-22T10:48:16;99190.75;;;21.19;61.45
25947;BME280;13745;51.470;9.894;2023-07-22T10:51:05;99185.00;;;21.26;61.85
25947;BME280;13745;51.470;9.894;2023-07-22T10:53:51;99190.69;;;21.35;61.86
25947;BME280;13745;51.470;9.894;2023-07-22T10:56:36;99183.56;;;21.37;61.66
25947;BME280;13745;51.470;9.894;2023-07-22T10:59:26;99178.78;;;21.43;61.83
25947;BME280;13745;51.470;9.894;2023-07-22T11:02:23;99176.78;;;21.61;62.20
25947;BME280;13745;51.470;9.894;2023-07-22T11:05:11;99167.72;;;21.51;62.07
25947;BME280;13745;51.470;9.894;2023-07-22T11:08:03;99170.63;;;21.32;62.38
25947;BME280;13745;51.470;9.894;2023-07-22T11:10:52;99168.34;;;21.12;62.45
25947;BME280;13745;51.470;9.894;2023-07-22T11:13:38;99173.59;;;20.97;62.16
25947;BME280;13745;51.470;9.894;2023-07-22T11:16:28;99169.97;;;20.84;61.42
25947;BME280;13745;51.470;9.894;2023-07-22T11:19:14;99164.22;;;20.78;61.60
25947;BME280;13745;51.470;9.894;2023-07-22T11:22:01;99166.66;;;20.81;60.97
25947;BME280;13745;51.470;9.894;2023-07-22T11:24:46;99152.75;;;20.93;60.86
25947;BME280;13745;51.470;9.894;2023-07-22T11:27:32;99152.22;;;21.16;60.80
25947;BME280;13745;51.470;9.894;2023-07-22T11:30:17;99152.28;;;21.45;60.36
25947;BME280;13745;51.470;9.894;2023-07-22T11:33:02;99150.47;;;21.74;60.75
25947;BME280;13745;51.470;9.894;2023-07-22T11:35:47;99140.16;;;21.98;59.71
25947;BME280;13745;51.470;9.894;2023-07-22T11:38:34;99138.72;;;22.06;59.14
25947;BME280;13745;51.470;9.894;2023-07-22T11:41:20;99132.97;;;22.14;59.10
25947;BME280;13745;51.470;9.894;2023-07-22T11:44:06;99133.53;;;22.19;58.92
25947;BME280;13745;51.470;9.894;2023-07-22T11:46:54;99140.28;;;22.23;58.77
25947;BME280;13745;51.470;9.894;2023-07-22T11:49:41;99126.03;;;22.26;59.38
25947;BME280;13745;51.470;9.894;2023-07-22T11:52:27;99117.59;;;22.33;58.99
25947;BME280;13745;51.470;9.894;2023-07-22T11:55:14;99111.41;;;22.47;59.20
25947;BME280;13745;51.470;9.894;2023-07-22T11:57:59;99125.50;;;22.60;58.83
25947;BME280;13745;51.470;9.894;2023-07-22T12:00:44;99118.53;;;22.59;58.22
25947;BME280;13745;51.470;9.894;2023-07-22T12:03:31;99111.97;;;22.52;58.38
25947;BME280;13745;51.470;9.894;2023-07-22T12:06:17;99113.09;;;22.48;57.67
25947;BME280;13745;51.470;9.894;2023-07-22T12:09:02;99107.09;;;22.46;57.45
25947;BME280;13745;51.470;9.894;2023-07-22T12:11:55;99112.25;;;22.48;57.27
25947;BME280;13745;51.470;9.894;2023-07-22T12:14:41;99117.16;;;22.54;57.33
25947;BME280;13745;51.470;9.894;2023-07-22T12:17:26;99107.75;;;22.62;56.34
25947;BME280;13745;51.470;9.894;2023-07-22T12:20:12;99112.41;;;22.71;56.10
25947;BME280;13745;51.470;9.894;2023-07-22T12:22:58;99101.53;;;22.76;56.03
25947;BME280;13745;51.470;9.894;2023-07-22T12:25:43;99107.69;;;22.77;55.53
25947;BME280;13745;51.470;9.894;2023-07-22T12:28:29;99103.75;;;22.82;55.57
25947;BME280;13745;51.470;9.894;2023-07-22T12:31:15;99098.63;;;22.93;55.08
25947;BME280;13745;51.470;9.894;2023-07-22T12:34:00;99099.56;;;23.05;55.32
25947;BME280;13745;51.470;9.894;2023-07-22T12:36:45;99095.22;;;23.17;55.65
25947;BME280;13745;51.470;9.894;2023-07-22T12:39:30;99082.22;;;23.26;54.96
25947;BME280;13745;51.470;9.894;2023-07-22T12:42:15;99084.75;;;23.28;55.29
25947;BME280;13745;51.470;9.894;2023-07-22T12:45:02;99083.47;;;23.21;55.00
25947;BME280;13745;51.470;9.894;2023-07-22T12:47:47;99075.78;;;23.18;55.21
25947;BME280;13745;51.470;9.894;2023-07-22T12:50:32;99072.06;;;23.20;54.86
25947;BME280;13745;51.470;9.894;2023-07-22T12:53:18;99070.03;;;23.24;54.66
25947;BME280;13745;51.470;9.894;2023-07-22T12:56:03;99072.47;;;23.27;54.67
25947;BME280;13745;51.470;9.894;2023-07-22T12:58:49;99070.88;;;23.24;54.71
25947;BME280;13745;51.470;9.894;2023-07-22T13:01:36;99067.38;;;23.24;54.33
25947;BME280;13745;51.470;9.894;2023-07-22T13:04:25;99067.31;;;23.25;54.13
25947;BME280;13745;51.470;9.894;2023-07-22T13:07:10;99066.34;;;23.26;54.19
25947;BME280;13745;51.470;9.894;2023-07-22T13:09:55;99070.56;;;23.29;54.04
25947;BME280;13745;51.470;9.894;2023-07-22T13:12:40;99070.25;;;23.34;54.21
25947;BME280;13745;51.470;9.894;2023-07-22T13:15:26;99063.22;;;23.45;54.27
25947;BME280;13745;51.470;9.894;2023-07-22T13:18:12;99057.84;;;23.60;53.83
25947;BME280;13745;51.470;9.894;2023-07-22T13:21:00;99060.66;;;23.69;53.74
25947;BME280;13745;51.470;9.894;2023-07-22T13:23:45;99063.25;;;23.82;53.23
25947;BME280;13745;51.470;9.894;2023-07-22T13:26:30;99060.78;;;23.92;52.92
25947;BME280;13745;51.470;9.894;2023-07-22T13:29:15;99060.94;;;24.01;52.53
25947;BME280;13745;51.470;9.894;2023-07-22T13:32:01;99050.78;;;24.19;52.17
25947;BME280;13745;51.470;9.894;2023-07-22T13:34:49;99052.44;;;24.33;52.33
25947;BME280;13745;51.470;9.894;2023-07-22T13:37:34;99053.66;;;24.40;52.06
25947;BME280;13745;51.470;9.894;2023-07-22T13:40:19;99052.72;;;24.41;51.74
25947;BME280;13745;51.470;9.894;2023-07-22T13:43:04;99038.38;;;24.44;51.43
25947;BME280;13745;51.470;9.894;2023-07-22T13:45:50;99038.00;;;24.48;51.30
25947;BME280;13745;51.470;9.894;2023-07-22T13:48:35;99039.50;;;24.52;50.95
25947;BME280;13745;51.470;9.894;2023-07-22T13:51:21;99028.63;;;24.55;51.01
25947;BME280;13745;51.470;9.894;2023-07-22T13:54:06;99031.06;;;24.58;50.87
25947;BME280;13745;51.470;9.894;2023-07-22T13:56:51;99031.91;;;24.59;50.65
25947;BME280;13745;51.470;9.894;2023-07-22T13:59:36;99029.34;;;24.57;50.49
25947;BME280;13745;51.470;9.894;2023-07-22T14:02:21;99023.84;;;24.72;50.61
25947;BME280;13745;51.470;9.894;2023-07-22T14:05:08;99024.09;;;24.80;50.46
25947;BME280;13745;51.470;9.894;2023-07-22T14:07:54;99020.00;;;24.87;50.28
25947;BME280;13745;51.470;9.894;2023-07-22T14:10:40;99015.66;;;24.97;50.49
25947;BME280;13745;51.470;9.894;2023-07-22T14:13:25;99022.09;;;25.06;49.66
25947;BME280;13745;51.470;9.894;2023-07-22T14:16:11;99003.78;;;25.03;49.94
25947;BME280;13745;51.470;9.894;2023-07-22T14:18:56;99017.13;;;25.01;49.86
25947;BME280;13745;51.470;9.894;2023-07-22T14:21:41;99009.16;;;25.01;49.75
25947;BME280;13745;51.470;9.894;2023-07-22T14:24:28;99011.56;;;24.93;49.61
25947;BME280;13745;51.470;9.894;2023-07-22T14:27:13;99009.16;;;24.68;49.50
25947;BME280;13745;51.470;9.894;2023-07-22T14:29:58;99012.97;;;24.52;49.59
25947;BME280;13745;51.470;9.894;2023-07-22T14:32:43;99008.28;;;24.56;49.97
25947;BME280;13745;51.470;9.894;2023-07-22T14:35:28;99003.94;;;24.55;50.08
25947;BME280;13745;51.470;9.894;2023-07-22T14:38:13;99012.34;;;24.49;50.15